Time;durP1;ratioP1;P1;durP2;ratioP2;P2;SDS_P1;SDS_P2;PMS_P1;PMS_P2;Temp;Humidity;BMP_temperature;BMP_pressure;BME280_temperature;BME280_humidity;BME280_pressure;Samples;Min_cycle;Max_cycle;Signal;HPM_P1;HPM_P2
2022/10/10 00:00:43;;;;;;;;;;;19.80;44.20;;;;;;5084162;28;19924;-67
2022/10/10 00:03:09;;;;;;;;;;;19.90;44.40;;;;;;5081177;28;19970;-68
2022/10/10 00:05:36;;;;;;;;;;;19.80;44.20;;;;;;5064328;28;19973;-67
2022/10/10 00:08:03;;;;;;;;;;;19.80;44.20;;;;;;5073444;28;19989;-68
2022/10/10 00:10:30;;;;;;;;;;;19.80;44.20;;;;;;5105497;28;19955;-67
2022/10/10 00:12:57;;;;;;;;;;;19.80;44.20;;;;;;5079747;28;19927;-67
2022/10/10 00:15:23;;;;;;;;;;;19.80;44.20;;;;;;5077369;28;20273;-67
2022/10/10 00:17:51;;;;;;;;;;;19.80;44.10;;;;;;5063893;28;19920;-67
2022/10/10 00:20:19;;;;;;;;;;;19.80;44.10;;;;;;5069367;28;20096;-68
2022/10/10 00:22:45;;;;;;;;;;;19.80;44.10;;;;;;5079885;28;19997;-67
2022/10/10 00:25:12;;;;;;;;;;;19.80;44.10;;;;;;5067976;28;19981;-68
2022/10/10 00:27:39;;;;;;;;;;;19.80;44.10;;;;;;5072281;28;19939;-67
2022/10/10 00:30:06;;;;;;;;;;;19.80;44.10;;;;;;5094852;28;20015;-67
2022/10/10 00:32:33;;;;;;;;;;;19.80;44.10;;;;;;5069278;28;20017;-68
2022/10/10 00:35:02;;;;;;;;;;;19.80;44.10;;;;;;5061530;28;19928;-68
2022/10/10 00:37:29;;;;;;;;;;;19.80;44.10;;;;;;5062102;28;19921;-68
2022/10/10 00:39:55;;;;;;;;;;;19.80;44.00;;;;;;5073693;28;19971;-68
2022/10/10 00:42:22;;;;;;;;;;;19.80;44.00;;;;;;5104112;28;19959;-67
2022/10/10 00:45:04;;;;;;;;;;;19.80;44.00;;;;;;5079848;28;20355;-67
2022/10/10 00:47:30;;;;;;;;;;;19.80;44.00;;;;;;5088801;28;19963;-67
2022/10/10 00:49:57;;;;;;;;;;;19.80;44.00;;;;;;5076919;28;19924;-68
2022/10/10 00:52:25;;;;;;;;;;;19.80;44.00;;;;;;5078021;28;19948;-68
2022/10/10 00:54:52;;;;;;;;;;;19.80;43.90;;;;;;5093898;28;19963;-68
2022/10/10 00:57:19;;;;;;;;;;;19.80;43.90;;;;;;5085886;28;19921;-67
2022/10/10 00:59:46;;;;;;;;;;;19.80;43.90;;;;;;5102806;28;19963;-68
2022/10/10 01:02:12;;;;;;;;;;;19.70;43.80;;;;;;5075179;28;20386;-67
2022/10/10 01:04:40;;;;;;;;;;;19.80;43.90;;;;;;5074683;28;19920;-67
2022/10/10 01:07:09;;;;;;;;;;;19.70;43.80;;;;;;5091673;28;19920;-68
2022/10/10 01:09:37;;;;;;;;;;;19.70;43.70;;;;;;5085299;28;19963;-68
2022/10/10 01:12:06;;;;;;;;;;;19.70;43.70;;;;;;5085512;28;19920;-68
2022/10/10 01:14:35;;;;;;;;;;;19.70;43.70;;;;;;5068598;28;20023;-67
2022/10/10 01:17:03;;;;;;;;;;;19.70;43.70;;;;;;5096070;28;20027;-68
2022/10/10 01:19:34;;;;;;;;;;;19.70;43.70;;;;;;5075942;28;19927;-67
2022/10/10 01:22:03;;;;;;;;;;;19.70;43.60;;;;;;5071766;28;20318;-67
2022/10/10 01:24:33;;;;;;;;;;;19.70;43.60;;;;;;5068105;28;20322;-68
2022/10/10 01:27:18;;;;;;;;;;;19.70;43.60;;;;;;5067575;28;19960;-67
2022/10/10 01:29:47;;;;;;;;;;;19.70;43.60;;;;;;5051621;28;19964;-68
2022/10/10 01:32:14;;;;;;;;;;;19.70;43.60;;;;;;5075678;28;19924;-68
2022/10/10 01:34:42;;;;;;;;;;;19.70;43.60;;;;;;5070079;28;19978;-67
2022/10/10 01:37:10;;;;;;;;;;;19.70;43.60;;;;;;5074996;28;19950;-70
2022/10/10 01:39:39;;;;;;;;;;;19.70;43.60;;;;;;5080097;28;19924;-68
2022/10/10 01:42:07;;;;;;;;;;;19.70;43.60;;;;;;5072197;28;19966;-70
2022/10/10 01:44:33;;;;;;;;;;;19.70;43.50;;;;;;5096537;28;20262;-69
2022/10/10 01:47:01;;;;;;;;;;;19.70;43.60;;;;;;5081976;28;19926;-69
2022/10/10 01:49:32;;;;;;;;;;;19.70;43.50;;;;;;5074998;28;19962;-70
2022/10/10 01:52:02;;;;;;;;;;;19.70;43.50;;;;;;5070882;28;19948;-69
2022/10/10 01:54:32;;;;;;;;;;;19.70;43.50;;;;;;5073088;28;19966;-69
2022/10/10 01:57:00;;;;;;;;;;;19.70;43.50;;;;;;5104852;28;20500;-69
2022/10/10 01:59:29;;;;;;;;;;;19.70;43.50;;;;;;5098384;28;19963;-69
2022/10/10 02:01:56;;;;;;;;;;;19.70;43.50;;;;;;5095864;28;20026;-69
2022/10/10 02:04:26;;;;;;;;;;;19.70;43.50;;;;;;5074645;28;19927;-69
2022/10/10 02:06:54;;;;;;;;;;;19.60;43.40;;;;;;5079411;28;19924;-69
2022/10/10 02:09:21;;;;;;;;;;;19.70;43.50;;;;;;5061103;28;19920;-69
2022/10/10 02:11:48;;;;;;;;;;;19.70;43.40;;;;;;5066815;28;19927;-69
2022/10/10 02:14:15;;;;;;;;;;;19.60;43.30;;;;;;5083032;28;19920;-69
2022/10/10 02:16:42;;;;;;;;;;;19.60;43.30;;;;;;5078407;28;19920;-69
2022/10/10 02:19:09;;;;;;;;;;;19.60;43.30;;;;;;5082254;28;19979;-70
2022/10/10 02:21:38;;;;;;;;;;;19.60;43.30;;;;;;5070982;28;19924;-69
2022/10/10 02:24:05;;;;;;;;;;;19.60;43.30;;;;;;5070277;28;19920;-69
2022/10/10 02:26:32;;;;;;;;;;;19.60;43.20;;;;;;5064724;28;19982;-69
2022/10/10 02:28:59;;;;;;;;;;;19.60;43.20;;;;;;5084342;28;19950;-69
2022/10/10 02:31:27;;;;;;;;;;;19.60;43.20;;;;;;5079879;28;19924;-70
2022/10/10 02:33:55;;;;;;;;;;;19.60;43.20;;;;;;5072681;28;19920;-69
2022/10/10 02:36:22;;;;;;;;;;;19.60;43.20;;;;;;5075527;28;19920;-69
2022/10/10 02:38:50;;;;;;;;;;;19.60;43.20;;;;;;5075449;28;19931;-69
2022/10/10 02:41:17;;;;;;;;;;;19.60;43.20;;;;;;5080187;28;20162;-69
2022/10/10 02:43:44;;;;;;;;;;;19.60;43.20;;;;;;5062383;28;19920;-69
2022/10/10 02:46:12;;;;;;;;;;;19.60;43.20;;;;;;5078159;28;20301;-70
2022/10/10 02:48:39;;;;;;;;;;;19.60;43.20;;;;;;5062933;28;19951;-69
2022/10/10 02:51:05;;;;;;;;;;;19.60;43.20;;;;;;5061709;28;20003;-69
2022/10/10 02:53:32;;;;;;;;;;;19.60;43.20;;;;;;5075279;28;19931;-69
2022/10/10 02:56:01;;;;;;;;;;;19.60;43.10;;;;;;5075379;28;19920;-69
2022/10/10 02:58:27;;;;;;;;;;;19.60;43.10;;;;;;5076652;28;20328;-69
2022/10/10 03:00:54;;;;;;;;;;;19.60;43.10;;;;;;5085456;28;19931;-69
2022/10/10 03:03:21;;;;;;;;;;;19.60;43.10;;;;;;5080985;28;19931;-69
2022/10/10 03:05:47;;;;;;;;;;;19.60;43.10;;;;;;5078274;28;19928;-69
2022/10/10 03:08:14;;;;;;;;;;;19.60;43.10;;;;;;5084043;28;20354;-69
2022/10/10 03:10:41;;;;;;;;;;;19.60;43.10;;;;;;5077090;28;19991;-69
2022/10/10 03:13:09;;;;;;;;;;;19.60;43.10;;;;;;5066564;28;19924;-69
2022/10/10 03:15:36;;;;;;;;;;;19.60;43.00;;;;;;5069892;28;19924;-69
2022/10/10 03:18:03;;;;;;;;;;;19.60;43.00;;;;;;5073848;28;20415;-69
2022/10/10 03:20:29;;;;;;;;;;;19.60;43.00;;;;;;5070977;28;19927;-69
2022/10/10 03:22:56;;;;;;;;;;;19.60;43.60;;;;;;5089951;28;19946;-70
2022/10/10 03:25:23;;;;;;;;;;;19.60;43.00;;;;;;5085309;28;19961;-69
2022/10/10 03:27:50;;;;;;;;;;;19.60;42.90;;;;;;5078808;28;19960;-69
2022/10/10 03:30:18;;;;;;;;;;;19.50;42.80;;;;;;5076960;28;19927;-69
2022/10/10 03:32:44;;;;;;;;;;;19.50;42.80;;;;;;5067780;28;19959;-69
2022/10/10 03:35:11;;;;;;;;;;;19.50;42.80;;;;;;5083775;28;19927;-70
2022/10/10 03:37:38;;;;;;;;;;;19.50;42.80;;;;;;5082471;28;19967;-69
2022/10/10 03:40:05;;;;;;;;;;;19.50;42.80;;;;;;5057091;28;19944;-69
2022/10/10 03:42:32;;;;;;;;;;;19.50;42.80;;;;;;5068649;28;19928;-69
2022/10/10 03:44:59;;;;;;;;;;;19.50;42.80;;;;;;5080650;28;19920;-69
2022/10/10 03:47:27;;;;;;;;;;;19.50;42.70;;;;;;5073019;28;19924;-69
2022/10/10 03:49:54;;;;;;;;;;;19.50;42.70;;;;;;5081684;28;19967;-69
2022/10/10 03:52:21;;;;;;;;;;;19.50;42.70;;;;;;5070193;28;19921;-69
2022/10/10 03:54:47;;;;;;;;;;;19.50;42.70;;;;;;5079936;28;19927;-69
2022/10/10 03:57:14;;;;;;;;;;;19.50;42.70;;;;;;5068554;28;19927;-69
2022/10/10 03:59:41;;;;;;;;;;;19.50;42.60;;;;;;5076302;28;19932;-69
2022/10/10 04:02:08;;;;;;;;;;;19.50;42.70;;;;;;5094451;28;19951;-69
2022/10/10 04:04:36;;;;;;;;;;;19.50;42.60;;;;;;5076205;28;19920;-69
2022/10/10 04:07:03;;;;;;;;;;;19.50;42.60;;;;;;5092595;28;20023;-70
2022/10/10 04:09:30;;;;;;;;;;;19.50;42.60;;;;;;5075916;28;20023;-70
2022/10/10 04:11:56;;;;;;;;;;;19.50;42.60;;;;;;5077215;28;19921;-69
2022/10/10 04:14:23;;;;;;;;;;;19.50;42.50;;;;;;5081861;28;20037;-70
2022/10/10 04:16:50;;;;;;;;;;;19.50;42.60;;;;;;5087638;28;19920;-69
2022/10/10 04:19:17;;;;;;;;;;;19.50;42.60;;;;;;5075560;28;19973;-69
2022/10/10 04:21:45;;;;;;;;;;;19.40;42.40;;;;;;5086131;28;19920;-70
2022/10/10 04:24:11;;;;;;;;;;;19.40;42.40;;;;;;5076887;28;20019;-70
2022/10/10 04:26:38;;;;;;;;;;;19.40;42.40;;;;;;5072616;28;19943;-69
2022/10/10 04:29:05;;;;;;;;;;;19.40;42.40;;;;;;5070758;28;19920;-69
2022/10/10 04:31:32;;;;;;;;;;;19.40;42.40;;;;;;5087035;28;20363;-70
2022/10/10 04:33:58;;;;;;;;;;;19.40;42.40;;;;;;5071432;28;20039;-69
2022/10/10 04:36:25;;;;;;;;;;;19.40;42.40;;;;;;5086979;28;19921;-70
2022/10/10 04:38:53;;;;;;;;;;;19.40;42.30;;;;;;5081622;28;20389;-70
2022/10/10 04:41:20;;;;;;;;;;;19.40;42.30;;;;;;5056070;28;19924;-70
2022/10/10 04:43:46;;;;;;;;;;;19.40;42.30;;;;;;5069839;28;19924;-70
2022/10/10 04:46:13;;;;;;;;;;;19.40;42.30;;;;;;5084263;28;19956;-70
2022/10/10 04:48:40;;;;;;;;;;;19.40;42.30;;;;;;5071924;28;19924;-70
2022/10/10 04:51:06;;;;;;;;;;;19.40;42.30;;;;;;5072490;28;19924;-69
2022/10/10 04:53:33;;;;;;;;;;;19.40;42.20;;;;;;5078532;28;19920;-69
2022/10/10 04:56:01;;;;;;;;;;;19.40;42.20;;;;;;5084727;28;19968;-70
2022/10/10 04:58:28;;;;;;;;;;;19.40;42.20;;;;;;5067115;28;19963;-70
2022/10/10 05:00:55;;;;;;;;;;;19.40;42.20;;;;;;5075244;28;19970;-70
2022/10/10 05:03:22;;;;;;;;;;;19.40;42.20;;;;;;5075283;28;19950;-69
2022/10/10 05:05:48;;;;;;;;;;;19.40;42.20;;;;;;5086656;28;19979;-70
2022/10/10 05:08:15;;;;;;;;;;;19.40;42.20;;;;;;5076989;28;19928;-69
2022/10/10 05:10:42;;;;;;;;;;;19.40;42.20;;;;;;5068342;28;20358;-70
2022/10/10 05:13:12;;;;;;;;;;;19.40;42.10;;;;;;5068961;28;20454;-69
2022/10/10 05:15:38;;;;;;;;;;;19.30;42.10;;;;;;5078179;28;20302;-70
2022/10/10 05:18:05;;;;;;;;;;;19.40;42.20;;;;;;5094570;28;19920;-70
2022/10/10 05:20:32;;;;;;;;;;;19.30;42.00;;;;;;5062790;28;19920;-69
2022/10/10 05:22:59;;;;;;;;;;;19.30;42.00;;;;;;5081240;28;19962;-71
2022/10/10 05:25:26;;;;;;;;;;;19.30;42.00;;;;;;5091921;28;20011;-69
2022/10/10 05:27:52;;;;;;;;;;;19.30;42.00;;;;;;5069396;28;19970;-68
2022/10/10 05:30:21;;;;;;;;;;;19.30;42.00;;;;;;5063816;28;19927;-69
2022/10/10 05:32:48;;;;;;;;;;;19.30;42.10;;;;;;5087681;28;20263;-69
2022/10/10 05:35:15;;;;;;;;;;;19.30;42.10;;;;;;5070642;28;19995;-69
2022/10/10 05:37:41;;;;;;;;;;;19.30;42.10;;;;;;5070115;28;20343;-70
2022/10/10 05:40:09;;;;;;;;;;;19.30;42.10;;;;;;5068204;28;19924;-69
2022/10/10 05:42:36;;;;;;;;;;;19.30;42.10;;;;;;5066730;28;19920;-68
2022/10/10 05:45:02;;;;;;;;;;;19.30;42.10;;;;;;5081985;28;19924;-69
2022/10/10 05:47:31;;;;;;;;;;;19.30;42.10;;;;;;5087103;28;19920;-69
2022/10/10 05:49:57;;;;;;;;;;;19.30;42.10;;;;;;5067832;28;20009;-69
2022/10/10 05:52:24;;;;;;;;;;;19.30;42.10;;;;;;5085580;28;19920;-69
2022/10/10 05:54:51;;;;;;;;;;;19.30;42.00;;;;;;5083511;28;19947;-70
2022/10/10 05:57:17;;;;;;;;;;;19.30;42.00;;;;;;5081940;28;19924;-70
2022/10/10 05:59:45;;;;;;;;;;;19.30;42.10;;;;;;5062640;28;19920;-70
2022/10/10 06:02:12;;;;;;;;;;;19.30;42.00;;;;;;5089327;28;19935;-71
2022/10/10 06:04:40;;;;;;;;;;;19.30;42.00;;;;;;5070278;28;20023;-71
2022/10/10 06:07:06;;;;;;;;;;;19.30;42.00;;;;;;5087496;28;20159;-70
2022/10/10 06:09:33;;;;;;;;;;;19.30;42.00;;;;;;5071125;28;19926;-71
2022/10/10 06:12:00;;;;;;;;;;;19.30;42.00;;;;;;5054222;28;19975;-71
2022/10/10 06:14:26;;;;;;;;;;;19.30;42.00;;;;;;5085594;28;20083;-71
2022/10/10 06:16:53;;;;;;;;;;;19.30;42.00;;;;;;5087184;28;19920;-71
2022/10/10 06:19:20;;;;;;;;;;;19.30;42.00;;;;;;5069466;28;19931;-71
2022/10/10 06:21:48;;;;;;;;;;;19.30;42.00;;;;;;5074044;28;19920;-71
2022/10/10 06:24:15;;;;;;;;;;;19.30;42.00;;;;;;5070167;28;19921;-71
2022/10/10 06:26:41;;;;;;;;;;;19.30;42.00;;;;;;5069749;28;20281;-70
2022/10/10 06:29:08;;;;;;;;;;;19.30;42.00;;;;;;5069242;28;19931;-69
2022/10/10 06:31:38;;;;;;;;;;;19.30;42.00;;;;;;5070153;28;19927;-71
2022/10/10 06:34:05;;;;;;;;;;;19.30;42.00;;;;;;5069235;28;20027;-71
2022/10/10 06:36:32;;;;;;;;;;;19.30;42.00;;;;;;5067003;28;20028;-70
2022/10/10 06:39:00;;;;;;;;;;;19.30;42.00;;;;;;5067176;28;20027;-71
2022/10/10 06:41:27;;;;;;;;;;;19.30;42.00;;;;;;5071907;28;20566;-70
2022/10/10 06:43:53;;;;;;;;;;;19.30;42.00;;;;;;5074797;28;20269;-70
2022/10/10 06:46:20;;;;;;;;;;;19.30;42.10;;;;;;5069993;28;19924;-71
2022/10/10 06:48:47;;;;;;;;;;;19.30;42.10;;;;;;5070096;28;19955;-71
2022/10/10 06:51:15;;;;;;;;;;;19.30;42.10;;;;;;5080338;28;19920;-70
2022/10/10 06:53:41;;;;;;;;;;;19.30;42.10;;;;;;5069682;28;19929;-70
2022/10/10 06:56:10;;;;;;;;;;;19.30;42.10;;;;;;5069261;28;19924;-70
2022/10/10 06:58:36;;;;;;;;;;;19.30;42.20;;;;;;5069916;28;19920;-71
2022/10/10 07:01:04;;;;;;;;;;;19.30;42.20;;;;;;5070086;28;19935;-70
2022/10/10 07:03:31;;;;;;;;;;;19.30;42.20;;;;;;5069915;28;20366;-70
2022/10/10 07:05:58;;;;;;;;;;;19.30;42.20;;;;;;5069839;28;19920;-72
2022/10/10 07:08:24;;;;;;;;;;;19.30;42.20;;;;;;5068233;28;20344;-68
2022/10/10 07:10:51;;;;;;;;;;;19.30;42.20;;;;;;5066890;28;19966;-66
2022/10/10 07:13:20;;;;;;;;;;;19.30;42.20;;;;;;5081770;28;19966;-68
2022/10/10 07:15:46;;;;;;;;;;;19.30;42.30;;;;;;5071775;28;19928;-75
2022/10/10 07:18:13;;;;;;;;;;;19.30;42.40;;;;;;5085482;28;19967;-73
2022/10/10 07:20:40;;;;;;;;;;;19.30;42.50;;;;;;5076886;28;19947;-73
2022/10/10 07:23:06;;;;;;;;;;;19.40;42.70;;;;;;5075231;28;20507;-72
2022/10/10 07:25:33;;;;;;;;;;;19.40;42.80;;;;;;5080389;28;19931;-76
2022/10/10 07:28:00;;;;;;;;;;;19.40;42.90;;;;;;5089425;28;19924;-73
2022/10/10 07:30:28;;;;;;;;;;;19.50;42.90;;;;;;5065009;28;19928;-76
2022/10/10 07:32:55;;;;;;;;;;;19.50;43.00;;;;;;5071587;28;20346;-70
2022/10/10 07:35:22;;;;;;;;;;;19.50;43.00;;;;;;5067680;28;19921;-75
2022/10/10 07:37:49;;;;;;;;;;;19.50;43.00;;;;;;5086832;28;19928;-79
2022/10/10 07:40:15;;;;;;;;;;;19.60;43.10;;;;;;5083011;28;20020;-69
2022/10/10 07:42:42;;;;;;;;;;;19.60;43.10;;;;;;5089645;28;20408;-73
2022/10/10 07:45:11;;;;;;;;;;;19.60;43.10;;;;;;5082785;28;19973;-74
2022/10/10 07:47:39;;;;;;;;;;;19.60;43.20;;;;;;5061744;28;19951;-73
2022/10/10 07:50:06;;;;;;;;;;;19.60;43.20;;;;;;5065893;28;19920;-74
2022/10/10 07:52:33;;;;;;;;;;;19.60;43.20;;;;;;5076606;28;19928;-75
2022/10/10 07:55:00;;;;;;;;;;;19.60;43.20;;;;;;5078924;28;19920;-80
2022/10/10 07:57:27;;;;;;;;;;;19.60;43.20;;;;;;5074733;28;19956;-76
2022/10/10 07:59:54;;;;;;;;;;;19.60;43.20;;;;;;5074173;28;19920;-76
2022/10/10 08:02:21;;;;;;;;;;;19.60;43.20;;;;;;5076046;28;19920;-77
2022/10/10 08:04:49;;;;;;;;;;;19.70;43.40;;;;;;5063255;28;19928;-79
2022/10/10 08:07:18;;;;;;;;;;;19.70;43.40;;;;;;5065713;28;19926;-80
2022/10/10 08:09:45;;;;;;;;;;;19.70;43.40;;;;;;5072863;28;20005;-81
2022/10/10 08:12:11;;;;;;;;;;;19.70;43.40;;;;;;5071421;28;19971;-78
2022/10/10 08:14:38;;;;;;;;;;;19.70;43.50;;;;;;5076916;28;19978;-74
2022/10/10 08:17:05;;;;;;;;;;;19.70;43.50;;;;;;5079128;28;19930;-78
2022/10/10 08:19:31;;;;;;;;;;;19.70;43.50;;;;;;5076377;28;20260;-73
2022/10/10 08:22:00;;;;;;;;;;;19.70;43.60;;;;;;5068193;28;19935;-76
2022/10/10 08:24:27;;;;;;;;;;;19.80;43.70;;;;;;5064110;28;19935;-69
2022/10/10 08:26:53;;;;;;;;;;;19.80;43.70;;;;;;5074468;28;20018;-69
2022/10/10 08:29:20;;;;;;;;;;;19.80;43.70;;;;;;5081811;28;20012;-77
2022/10/10 08:31:47;;;;;;;;;;;19.80;43.70;;;;;;5063436;28;20316;-69
2022/10/10 08:34:14;;;;;;;;;;;19.80;43.70;;;;;;5080519;28;19924;-75
2022/10/10 08:36:40;;;;;;;;;;;19.80;43.80;;;;;;5085761;28;19955;-78
2022/10/10 08:39:09;;;;;;;;;;;19.80;43.80;;;;;;5078175;28;20003;-76
2022/10/10 08:41:39;;;;;;;;;;;19.80;43.80;;;;;;5092652;28;20012;-75
2022/10/10 08:44:07;;;;;;;;;;;19.80;43.90;;;;;;5078710;28;19926;-73
2022/10/10 08:46:35;;;;;;;;;;;19.90;43.90;;;;;;5074047;28;19931;-72
2022/10/10 08:49:10;;;;;;;;;;;19.90;43.90;;;;;;5076916;28;19920;-75
2022/10/10 08:51:36;;;;;;;;;;;19.80;43.90;;;;;;5093430;28;19992;-72
2022/10/10 08:54:03;;;;;;;;;;;19.90;43.90;;;;;;5071040;28;19924;-72
2022/10/10 08:56:32;;;;;;;;;;;19.90;44.00;;;;;;5075515;28;19965;-61
2022/10/10 08:59:00;;;;;;;;;;;19.90;44.00;;;;;;5072023;28;20290;-61
2022/10/10 09:01:27;;;;;;;;;;;19.90;44.00;;;;;;5074834;28;19973;-61
2022/10/10 09:03:54;;;;;;;;;;;19.90;44.20;;;;;;5076137;28;19933;-61
2022/10/10 09:06:24;;;;;;;;;;;19.90;44.20;;;;;;5068514;28;19959;-61
2022/10/10 09:08:52;;;;;;;;;;;19.90;44.30;;;;;;5086420;28;19999;-62
2022/10/10 09:11:22;;;;;;;;;;;20.00;44.50;;;;;;5072156;28;19924;-61
2022/10/10 09:13:51;;;;;;;;;;;20.00;44.50;;;;;;5080627;28;20015;-61
2022/10/10 09:16:21;;;;;;;;;;;20.00;44.60;;;;;;5072433;28;19948;-62
2022/10/10 09:18:51;;;;;;;;;;;20.00;44.60;;;;;;5074696;28;19944;-60
2022/10/10 09:21:18;;;;;;;;;;;20.00;44.70;;;;;;5078009;28;19921;-61
2022/10/10 09:23:46;;;;;;;;;;;20.00;44.70;;;;;;5072012;28;19921;-62
2022/10/10 09:26:13;;;;;;;;;;;20.10;44.80;;;;;;5090872;28;19970;-63
2022/10/10 09:28:40;;;;;;;;;;;20.10;44.90;;;;;;5077277;28;19948;-61
2022/10/10 09:31:11;;;;;;;;;;;20.10;44.90;;;;;;5078824;28;20061;-61
2022/10/10 09:33:38;;;;;;;;;;;20.10;44.90;;;;;;5065738;28;19956;-61
2022/10/10 09:36:06;;;;;;;;;;;20.10;45.00;;;;;;5074794;28;20011;-62
2022/10/10 09:38:34;;;;;;;;;;;20.10;45.10;;;;;;5094843;28;20278;-62
2022/10/10 09:41:01;;;;;;;;;;;20.20;45.20;;;;;;5073036;28;19920;-60
2022/10/10 09:43:29;;;;;;;;;;;20.20;45.20;;;;;;5070364;28;19966;-61
2022/10/10 09:45:56;;;;;;;;;;;20.20;45.20;;;;;;5081088;28;19924;-61
2022/10/10 09:48:26;;;;;;;;;;;20.20;45.30;;;;;;5072827;28;20015;-63
2022/10/10 09:50:53;;;;;;;;;;;20.20;45.30;;;;;;5068130;28;19921;-62
2022/10/10 09:53:19;;;;;;;;;;;20.20;45.30;;;;;;5065922;28;19956;-63
2022/10/10 09:55:46;;;;;;;;;;;20.20;45.30;;;;;;5100046;28;19928;-62
2022/10/10 09:58:14;;;;;;;;;;;20.30;45.40;;;;;;5090381;28;19920;-63
2022/10/10 10:00:40;;;;;;;;;;;20.20;45.40;;;;;;5062760;28;20546;-62
2022/10/10 10:03:11;;;;;;;;;;;20.30;45.40;;;;;;5075406;28;19965;-62
2022/10/10 10:05:39;;;;;;;;;;;20.30;45.50;;;;;;5075464;28;19920;-63
2022/10/10 10:08:06;;;;;;;;;;;20.30;45.50;;;;;;5071494;28;19920;-62
2022/10/10 10:10:34;;;;;;;;;;;20.30;45.50;;;;;;5077158;28;19926;-62
2022/10/10 10:13:00;;;;;;;;;;;20.30;45.60;;;;;;5070125;28;20007;-61
2022/10/10 10:15:28;;;;;;;;;;;20.30;45.60;;;;;;5071781;28;19942;-62
2022/10/10 10:18:10;;;;;;;;;;;20.30;45.60;;;;;;5074207;28;19932;-62
2022/10/10 10:20:37;;;;;;;;;;;20.40;45.70;;;;;;5081910;28;19928;-61
2022/10/10 10:23:06;;;;;;;;;;;20.40;45.80;;;;;;5077711;28;19974;-60
2022/10/10 10:25:34;;;;;;;;;;;20.40;45.70;;;;;;5087427;28;19920;-62
2022/10/10 10:28:14;;;;;;;;;;;20.40;45.80;;;;;;5081311;28;19938;-61
2022/10/10 10:30:40;;;;;;;;;;;20.40;45.80;;;;;;5077443;28;19974;-61
2022/10/10 10:33:09;;;;;;;;;;;20.40;45.80;;;;;;5079316;28;19924;-62
2022/10/10 10:35:36;;;;;;;;;;;20.40;45.80;;;;;;5069975;28;19939;-63
2022/10/10 10:38:08;;;;;;;;;;;20.40;45.80;;;;;;5072080;28;19920;-62
2022/10/10 10:40:36;;;;;;;;;;;20.40;45.80;;;;;;5069833;28;20018;-63
2022/10/10 10:43:10;;;;;;;;;;;20.40;45.80;;;;;;5070951;28;19920;-64
2022/10/10 10:45:38;;;;;;;;;;;20.50;45.90;;;;;;5071668;28;19920;-64
2022/10/10 10:48:06;;;;;;;;;;;20.40;45.80;;;;;;5077344;28;19921;-64
2022/10/10 10:50:36;;;;;;;;;;;20.50;45.80;;;;;;5072307;28;19920;-62
2022/10/10 10:53:04;;;;;;;;;;;20.40;45.70;;;;;;5075321;28;19946;-64
2022/10/10 10:55:35;;;;;;;;;;;20.40;45.70;;;;;;5070866;28;19932;-64
2022/10/10 10:58:15;;;;;;;;;;;20.50;45.80;;;;;;5070735;28;19975;-63
2022/10/10 11:00:44;;;;;;;;;;;20.40;45.70;;;;;;5071385;28;19928;-63
2022/10/10 11:03:15;;;;;;;;;;;20.40;45.70;;;;;;5064833;28;20407;-63
2022/10/10 11:05:43;;;;;;;;;;;20.40;45.70;;;;;;5077503;28;19920;-64
2022/10/10 11:08:36;;;;;;;;;;;20.40;45.60;;;;;;5076888;28;19982;-64
2022/10/10 11:11:18;;;;;;;;;;;20.40;45.60;;;;;;5035242;28;20613;-63
2022/10/10 11:13:47;;;;;;;;;;;20.40;45.60;;;;;;5060731;28;19974;-64
2022/10/10 11:16:16;;;;;;;;;;;20.40;45.60;;;;;;5061304;28;19967;-63
2022/10/10 11:18:43;;;;;;;;;;;20.40;45.70;;;;;;5071349;28;19951;-63
2022/10/10 11:21:12;;;;;;;;;;;20.40;45.60;;;;;;5089841;28;22150;-63
2022/10/10 11:23:40;;;;;;;;;;;20.40;45.60;;;;;;5073128;28;20343;-62
2022/10/10 11:26:07;;;;;;;;;;;20.40;45.60;;;;;;5074434;28;19947;-63
2022/10/10 11:28:34;;;;;;;;;;;20.50;45.70;;;;;;5073225;28;19964;-63
2022/10/10 11:31:04;;;;;;;;;;;20.40;45.70;;;;;;5070664;28;19920;-63
2022/10/10 11:33:32;;;;;;;;;;;20.50;45.80;;;;;;5070193;28;19932;-63
2022/10/10 11:35:59;;;;;;;;;;;20.50;45.80;;;;;;5070041;28;19921;-63
2022/10/10 11:38:27;;;;;;;;;;;20.50;45.80;;;;;;5065930;28;20019;-63
2022/10/10 11:40:55;;;;;;;;;;;20.50;45.90;;;;;;5065856;28;19996;-62
2022/10/10 11:43:27;;;;;;;;;;;20.50;45.90;;;;;;5075202;28;19920;-64
2022/10/10 11:45:55;;;;;;;;;;;20.50;45.90;;;;;;5061937;28;19925;-63
2022/10/10 11:48:28;;;;;;;;;;;20.50;46.00;;;;;;5090472;28;19927;-63
2022/10/10 11:50:56;;;;;;;;;;;20.50;46.00;;;;;;5078881;28;19960;-63
2022/10/10 11:53:25;;;;;;;;;;;20.50;46.00;;;;;;5083647;28;19924;-63
2022/10/10 11:55:54;;;;;;;;;;;20.60;46.10;;;;;;5078083;28;19978;-63
2022/10/10 11:58:24;;;;;;;;;;;20.50;46.10;;;;;;5073851;28;19920;-63
2022/10/10 12:00:52;;;;;;;;;;;20.50;46.10;;;;;;5073751;28;19947;-63
2022/10/10 12:03:18;;;;;;;;;;;20.50;46.10;;;;;;5073187;28;19925;-63
2022/10/10 12:05:49;;;;;;;;;;;20.60;46.20;;;;;;5067301;28;20024;-63
2022/10/10 12:08:17;;;;;;;;;;;20.60;46.20;;;;;;5070725;28;20375;-63
2022/10/10 12:10:44;;;;;;;;;;;20.60;46.20;;;;;;5072763;28;19943;-63
2022/10/10 12:13:19;;;;;;;;;;;20.60;46.20;;;;;;5077085;28;19924;-63
2022/10/10 12:15:46;;;;;;;;;;;20.60;46.30;;;;;;5074734;28;19927;-63
2022/10/10 12:18:22;;;;;;;;;;;20.60;46.30;;;;;;5076152;28;19919;-63
2022/10/10 12:20:50;;;;;;;;;;;20.70;46.40;;;;;;5084360;28;19942;-64
2022/10/10 12:23:23;;;;;;;;;;;20.60;46.30;;;;;;5070121;28;19963;-63
2022/10/10 12:25:50;;;;;;;;;;;20.60;46.40;;;;;;5088204;28;19920;-64
2022/10/10 12:28:24;;;;;;;;;;;20.60;46.40;;;;;;5080168;28;19985;-63
2022/10/10 12:31:18;;;;;;;;;;;20.60;46.40;;;;;;5075751;28;19931;-64
2022/10/10 12:34:03;;;;;;;;;;;20.70;46.50;;;;;;5036404;28;19924;-63
2022/10/10 12:36:57;;;;;;;;;;;20.70;46.40;;;;;;5089654;28;19967;-64
2022/10/10 12:39:36;;;;;;;;;;;20.70;46.50;;;;;;5051558;28;19927;-64
2022/10/10 12:42:02;;;;;;;;;;;20.70;46.50;;;;;;5081707;28;19924;-64
2022/10/10 12:44:42;;;;;;;;;;;20.70;46.50;;;;;;5073072;28;19920;-63
2022/10/10 12:47:26;;;;;;;;;;;20.70;46.60;;;;;;5101904;28;19947;-64
2022/10/10 12:49:53;;;;;;;;;;;20.70;46.60;;;;;;5063488;28;19955;-63
2022/10/10 12:52:20;;;;;;;;;;;20.70;46.60;;;;;;5072616;28;19920;-63
2022/10/10 12:54:48;;;;;;;;;;;20.70;46.60;;;;;;5074063;28;19920;-63
2022/10/10 12:57:17;;;;;;;;;;;20.70;46.60;;;;;;5097753;28;19945;-63
2022/10/10 12:59:44;;;;;;;;;;;20.70;46.70;;;;;;5074789;28;19974;-63
2022/10/10 13:02:13;;;;;;;;;;;20.70;46.70;;;;;;5072244;28;19920;-64
2022/10/10 13:04:41;;;;;;;;;;;20.70;46.70;;;;;;5072423;28;19983;-63
2022/10/10 13:07:10;;;;;;;;;;;20.70;46.70;;;;;;5079924;28;20019;-63
2022/10/10 13:09:37;;;;;;;;;;;20.70;46.70;;;;;;5078079;28;19966;-64
2022/10/10 13:12:06;;;;;;;;;;;20.80;46.80;;;;;;5072752;28;19999;-63
2022/10/10 13:14:39;;;;;;;;;;;20.80;46.80;;;;;;5090917;28;19963;-62
2022/10/10 13:17:18;;;;;;;;;;;20.80;46.80;;;;;;5073580;28;19924;-64
2022/10/10 13:19:45;;;;;;;;;;;20.80;46.90;;;;;;5072624;28;19995;-65
2022/10/10 13:22:11;;;;;;;;;;;20.80;46.90;;;;;;5073771;28;19959;-65
2022/10/10 13:24:39;;;;;;;;;;;20.80;46.90;;;;;;5079913;28;20011;-63
2022/10/10 13:27:12;;;;;;;;;;;20.80;46.90;;;;;;5075522;28;19924;-64
2022/10/10 13:29:38;;;;;;;;;;;20.80;46.90;;;;;;5069474;28;19934;-64
2022/10/10 13:32:06;;;;;;;;;;;20.80;46.90;;;;;;5078436;28;19966;-63
2022/10/10 13:34:33;;;;;;;;;;;20.80;46.90;;;;;;5084693;28;19963;-64
2022/10/10 13:37:00;;;;;;;;;;;20.80;47.00;;;;;;5073035;28;19927;-63
2022/10/10 13:39:27;;;;;;;;;;;20.80;47.00;;;;;;5078539;28;20401;-64
2022/10/10 13:41:58;;;;;;;;;;;20.80;47.00;;;;;;5073742;28;19920;-62
2022/10/10 13:44:31;;;;;;;;;;;20.80;47.00;;;;;;5069963;28;19927;-62
2022/10/10 13:46:58;;;;;;;;;;;20.80;47.00;;;;;;5096174;28;19959;-60
2022/10/10 13:49:25;;;;;;;;;;;20.80;47.00;;;;;;5077250;28;19920;-62
2022/10/10 13:52:00;;;;;;;;;;;20.90;47.10;;;;;;5099107;28;19924;-62
2022/10/10 13:54:36;;;;;;;;;;;20.90;47.20;;;;;;5072875;28;19938;-64
2022/10/10 13:57:02;;;;;;;;;;;20.80;47.10;;;;;;5070172;28;20483;-62
2022/10/10 13:59:32;;;;;;;;;;;20.80;47.10;;;;;;5073827;28;20358;-62
2022/10/10 14:01:59;;;;;;;;;;;20.90;47.20;;;;;;5072724;28;19920;-62
2022/10/10 14:04:26;;;;;;;;;;;20.90;47.20;;;;;;5071903;28;20015;-61
2022/10/10 14:06:54;;;;;;;;;;;20.90;47.30;;;;;;5072965;28;19936;-63
2022/10/10 14:09:22;;;;;;;;;;;20.90;47.20;;;;;;5073529;28;19920;-63
2022/10/10 14:11:49;;;;;;;;;;;20.90;47.20;;;;;;5086409;28;19920;-62
2022/10/10 14:14:16;;;;;;;;;;;20.90;47.30;;;;;;5076200;28;19927;-61
2022/10/10 14:16:44;;;;;;;;;;;20.90;47.30;;;;;;5075420;28;20418;-63
2022/10/10 14:19:14;;;;;;;;;;;20.90;47.30;;;;;;5090168;28;19952;-62
2022/10/10 14:21:41;;;;;;;;;;;20.90;47.30;;;;;;5076965;28;20030;-61